Samos, Greece

3:13 AM EEST on October 01, 2014 (GMT +0300)
Adnan Menderes | Change Station
CLOSE
Current Station
Airport
Location: Izmir,
Elevation: 394 ft
Nearby Weather Stations

Elev 394 ft 38.29 °N, 27.15 °E | Updated 53 minutes ago

Clear
Clear
63 °F
Feels Like 63 °F
N
8
Wind Variable Wind from NNE

Today
High -- | Low -- °F
--% Chance of Precip.
Yesterday
High -- | Low -- °F
Precip. -- in
7:07 AM 6:55 PM
Waxing Crescent, 41% visible
Pressure 30.09 in
Visibility -9999.0 miles
Clouds
Dew Point 50 °F
Humidity 63%
Rainfall 0.00 in
Snow Depth Not available.
UV Not available.
Pollen Not available.
Air Quality Not available.
Flu Activity Not available.
METAR LTBJ 302320Z 02007KT CAVOK 17/10 Q1019 NOSIG RMK RWY16 36010KT

More Conditions Fewer Conditions

Pressure 30.09 in
Visibility -9999.0 miles
Clouds
Dew Point 50 °F
Humidity 63%
Rainfall 0.00 in
Snow Depth Not available.
UV Not available.
Pollen Not available.
Air Quality Not available.
Flu Activity Not available.
METAR LTBJ 302320Z 02007KT CAVOK 17/10 Q1019 NOSIG RMK RWY16 36010KT

More Conditions Fewer Conditions

10-Day Weather Forecast

Almanac

Astronomy

Oct. 01, 2014 Rise Set
Actual Time 7:07 AM EEST 6:55 PM EEST
Civil Twilight 6:41 AM EEST 7:21 PM EEST
Nautical Twilight 6:11 AM EEST 7:52 PM EEST
Astronomical Twilight 5:40 AM EEST 8:22 PM EEST
Moon 1:47 PM EEST No Moon Set
Length of Visible Light 12h 40m
Length of Day
11h 48m
Tomorrow will be 2m 23s shorter.
Waxing Crescent, 41% of the Moon is Illuminated
Sep 30
Waxing Crescent
Oct 1
First Quarter
Oct 8
Full
Oct 15
Last Quarter
Oct 23
New

Yesterday's Extremes

Country Highs Country Lows

Community

WunderPhotos

Upload Photos

1,757,788 photos uploaded!

Nearby

Snow Depth

Not available.

Earthquake Activity

City Distance Mag. Time & Date
No recent earthquake activity has been reported nearby.
Minimum magnitude displayed is 2.5.

Coastal Water Temperatures

Place Temperature
No Stations Reporting

Nearby Weather Stations